createdAt,value
2022-10-19T00:00:12.278Z,93.02
2022-10-19T00:01:12.066Z,93.33
2022-10-19T00:02:12.432Z,93.44
2022-10-19T00:03:33.145Z,93.23
2022-10-19T00:04:12.469Z,93.02
2022-10-19T00:05:12.269Z,93.02
2022-10-19T00:06:12.003Z,93.02
2022-10-19T00:07:12.477Z,93.23
2022-10-19T00:08:12.936Z,93.33
2022-10-19T00:09:13.875Z,93.33
2022-10-19T00:10:12.231Z,93.23
2022-10-19T00:11:11.985Z,93.02
2022-10-19T00:12:12.270Z,92.72
2022-10-19T00:13:32.934Z,92.82
2022-10-19T00:14:12.410Z,92.72
2022-10-19T00:15:12.171Z,92.72
2022-10-19T00:16:11.952Z,92.61
2022-10-19T00:17:12.224Z,92.82
2022-10-19T00:18:12.003Z,92.93
2022-10-19T00:19:12.292Z,93.13
2022-10-19T00:20:12.022Z,92.93
2022-10-19T00:21:12.301Z,93.33
2022-10-19T00:22:13.932Z,93.59
2022-10-19T00:23:33.315Z,93.64
2022-10-19T00:24:12.110Z,93.54
2022-10-19T00:25:11.907Z,93.38
2022-10-19T00:26:12.196Z,93.23
2022-10-19T00:27:11.963Z,93.27
2022-10-19T00:28:12.325Z,93.07
2022-10-19T00:29:12.129Z,93.48
2022-10-19T00:30:11.852Z,93.59
2022-10-19T00:31:12.123Z,93.79
2022-10-19T00:32:11.853Z,93.48
2022-10-19T00:33:33.645Z,93.48
2022-10-19T00:34:12.001Z,93.38
2022-10-19T00:35:11.735Z,93.17
2022-10-19T00:36:12.046Z,93.38
2022-10-19T00:37:11.826Z,93.27
2022-10-19T00:38:12.088Z,93.07
2022-10-19T00:39:11.877Z,93.17
2022-10-19T00:40:11.667Z,93.38
2022-10-19T00:41:11.912Z,93.48
2022-10-19T00:42:11.675Z,93.38
2022-10-19T00:43:32.458Z,93.38
2022-10-19T00:44:11.757Z,93.48
2022-10-19T00:45:12.043Z,93.59
2022-10-19T00:46:11.831Z,93.48
2022-10-19T00:47:11.615Z,93.48
2022-10-19T00:48:11.857Z,93.48
2022-10-19T00:49:12.451Z,93.48
2022-10-19T00:50:13.361Z,93.38
2022-10-19T00:51:11.689Z,93.48
2022-10-19T00:52:11.989Z,93.52
2022-10-19T00:53:33.229Z,93.89
2022-10-19T00:54:11.560Z,93.79
2022-10-19T00:55:11.812Z,93.79
2022-10-19T00:56:11.609Z,93.89
2022-10-19T00:57:11.839Z,93.83
2022-10-19T00:58:11.621Z,93.73
2022-10-19T00:59:11.892Z,93.83
2022-10-19T01:00:11.708Z,93.83
2022-10-19T01:01:11.525Z,93.73
2022-10-19T01:02:11.722Z,93.63
2022-10-19T01:03:32.471Z,93.73
2022-10-19T01:04:11.790Z,93.73
2022-10-19T01:05:11.552Z,93.52
2022-10-19T01:06:11.824Z,93.52
2022-10-19T01:07:11.611Z,93.32
2022-10-19T01:08:11.403Z,93.52
2022-10-19T01:09:11.721Z,93.52
2022-10-19T01:10:11.559Z,93.42
2022-10-19T01:11:11.759Z,93.42
2022-10-19T01:12:11.521Z,93.42
2022-10-19T01:13:32.787Z,93.52
2022-10-19T01:14:11.592Z,93.63
2022-10-19T01:15:11.353Z,93.73
2022-10-19T01:16:11.633Z,93.67
2022-10-19T01:17:11.433Z,93.63
2022-10-19T01:18:12.235Z,93.57
2022-10-19T01:19:11.524Z,93.57
2022-10-19T01:20:11.301Z,93.77
2022-10-19T01:21:11.552Z,93.57
2022-10-19T01:22:11.295Z,93.57
2022-10-19T01:23:31.988Z,93.77
2022-10-19T01:24:11.446Z,93.77
2022-10-19T01:25:11.193Z,94.18
2022-10-19T01:26:11.497Z,95.57
2022-10-19T01:27:11.237Z,95.68
2022-10-19T01:28:11.516Z,95.57
2022-10-19T01:29:11.359Z,95.47
2022-10-19T01:30:12.998Z,95.27
2022-10-19T01:31:12.256Z,95.17
2022-10-19T01:32:11.111Z,95.27
2022-10-19T01:33:32.839Z,95.47
2022-10-19T01:34:11.184Z,95.68
2022-10-19T01:35:11.462Z,95.89
2022-10-19T01:36:11.210Z,95.89
2022-10-19T01:37:11.469Z,95.68
2022-10-19T01:38:11.262Z,95.17
2022-10-19T01:39:11.027Z,94.96
2022-10-19T01:40:11.328Z,95.17
2022-10-19T01:41:11.101Z,95.37
2022-10-19T01:42:11.359Z,95.68
2022-10-19T01:43:32.626Z,95.57
2022-10-19T01:44:11.453Z,95.47
2022-10-19T01:45:11.178Z,95.68
2022-10-19T01:46:11.436Z,96.30
2022-10-19T01:47:11.201Z,96.81
2022-10-19T01:48:11.009Z,97.02
2022-10-19T01:49:11.241Z,96.70
2022-10-19T01:50:11.392Z,96.60
2022-10-19T01:51:12.282Z,96.60
2022-10-19T01:52:11.117Z,96.60
2022-10-19T01:53:32.864Z,96.60
2022-10-19T01:54:11.211Z,96.60
2022-10-19T01:55:10.981Z,96.70
2022-10-19T01:56:11.258Z,96.60
2022-10-19T01:57:11.042Z,96.91
2022-10-19T01:58:11.283Z,97.02
2022-10-19T01:59:11.051Z,97.12
2022-10-19T02:00:10.854Z,97.32
2022-10-19T02:02:10.852Z,97.94
2022-10-19T02:03:31.514Z,97.94
2022-10-19T02:04:10.933Z,98.04
2022-10-19T02:05:11.202Z,98.14
2022-10-19T02:06:10.962Z,98.25
2022-10-19T02:07:11.204Z,98.35
2022-10-19T02:08:10.953Z,98.35
2022-10-19T02:09:12.628Z,98.25
2022-10-19T02:10:11.521Z,98.04
2022-10-19T02:11:12.230Z,98.14
2022-10-19T02:12:11.096Z,98.04
2022-10-19T02:13:30.865Z,98.25
2022-10-19T02:14:11.154Z,98.25
2022-10-19T02:15:11.019Z,98.45
2022-10-19T02:16:10.685Z,98.55
2022-10-19T02:17:10.947Z,98.35
2022-10-19T02:18:12.785Z,98.25
2022-10-19T02:19:11.090Z,98.04
2022-10-19T02:20:10.826Z,97.94
2022-10-19T02:21:11.197Z,97.73
2022-10-19T02:22:10.895Z,97.63
2022-10-19T02:23:30.666Z,97.32
2022-10-19T02:24:10.957Z,97.27
2022-10-19T02:25:10.677Z,97.27
2022-10-19T02:26:10.978Z,97.47
2022-10-19T02:27:11.518Z,97.73
2022-10-19T02:28:10.529Z,97.83
2022-10-19T02:29:10.791Z,97.94
2022-10-19T02:30:10.718Z,97.94
2022-10-19T02:31:11.007Z,97.88
2022-10-19T02:32:10.660Z,97.88
2022-10-19T02:33:31.448Z,97.67
2022-10-19T02:34:10.730Z,97.47
2022-10-19T02:35:10.525Z,97.37
2022-10-19T02:36:10.801Z,97.37
2022-10-19T02:37:10.560Z,97.27
2022-10-19T02:38:10.851Z,97.27
2022-10-19T02:39:12.032Z,97.16
2022-10-19T02:40:10.894Z,97.16
2022-10-19T02:41:10.660Z,97.16
2022-10-19T02:42:10.442Z,97.37
2022-10-19T02:43:30.730Z,97.57
2022-10-19T02:44:10.512Z,97.67
2022-10-19T02:45:11.521Z,98.19
2022-10-19T02:46:10.577Z,98.19
2022-10-19T02:47:10.322Z,98.29
2022-10-19T02:48:10.641Z,98.08
2022-10-19T02:49:10.423Z,97.88
2022-10-19T02:50:10.693Z,97.67
2022-10-19T02:51:10.603Z,97.47
2022-10-19T02:52:10.803Z,97.27
2022-10-19T02:53:30.550Z,97.47
2022-10-19T02:54:10.332Z,97.88
2022-10-19T02:55:10.629Z,98.08
2022-10-19T02:56:10.404Z,98.19
2022-10-19T02:57:11.081Z,98.29
2022-10-19T02:58:10.434Z,98.39
2022-10-19T02:59:10.685Z,98.39
2022-10-19T03:00:10.472Z,98.50
2022-10-19T03:01:10.249Z,98.50
2022-10-19T03:02:10.513Z,98.50
2022-10-19T03:03:30.266Z,98.19
2022-10-19T03:04:10.479Z,98.08
2022-10-19T03:05:10.212Z,97.78
2022-10-19T03:06:11.904Z,97.57
2022-10-19T03:07:10.211Z,97.31
2022-10-19T03:08:10.455Z,97.00
2022-10-19T03:09:10.190Z,97.00
2022-10-19T03:10:10.430Z,96.90
2022-10-19T03:11:11.637Z,96.80
2022-10-19T03:12:10.469Z,96.69
2022-10-19T03:13:30.199Z,96.69
2022-10-19T03:14:10.431Z,96.48
2022-10-19T03:15:10.180Z,96.39
2022-10-19T03:16:10.408Z,96.48
2022-10-19T03:17:10.178Z,96.28
2022-10-19T03:18:10.405Z,96.48
2022-10-19T03:19:10.161Z,96.48
2022-10-19T03:20:10.409Z,96.39
2022-10-19T03:21:10.162Z,96.43
2022-10-19T03:22:10.382Z,96.33
2022-10-19T03:23:30.142Z,96.33
2022-10-19T03:24:10.375Z,96.33
2022-10-19T03:25:10.109Z,96.53
2022-10-19T03:26:12.220Z,96.43
2022-10-19T03:27:10.086Z,96.33
2022-10-19T03:28:10.335Z,96.43
2022-10-19T03:29:10.084Z,96.43
2022-10-19T03:30:10.318Z,96.43
2022-10-19T03:31:10.057Z,96.43
2022-10-19T03:32:11.011Z,96.43
2022-10-19T03:33:30.060Z,96.43
2022-10-19T03:34:10.295Z,96.43
2022-10-19T03:35:10.027Z,96.33
2022-10-19T03:36:10.265Z,96.12
2022-10-19T03:37:10.001Z,95.92
2022-10-19T03:38:10.242Z,95.92
2022-10-19T03:39:09.995Z,95.81
2022-10-19T03:40:10.238Z,95.71
2022-10-19T03:41:09.968Z,95.92
2022-10-19T03:42:10.214Z,96.22
2022-10-19T03:43:29.976Z,96.12
2022-10-19T03:44:10.220Z,96.02
2022-10-19T03:45:09.971Z,96.02
2022-10-19T03:46:10.252Z,96.02
2022-10-19T03:47:09.939Z,95.92
2022-10-19T03:48:10.696Z,95.81
2022-10-19T03:49:10.076Z,95.81
2022-10-19T03:50:09.738Z,96.02
2022-10-19T03:51:09.988Z,96.12
2022-10-19T03:52:09.732Z,96.02
2022-10-19T03:53:32.497Z,96.33
2022-10-19T03:54:09.728Z,96.53
2022-10-19T03:55:09.988Z,96.33
2022-10-19T03:56:09.718Z,96.12
2022-10-19T03:57:09.962Z,96.12
2022-10-19T03:58:09.700Z,96.02
2022-10-19T03:59:09.942Z,96.22
2022-10-19T04:00:09.690Z,96.73
2022-10-19T04:01:09.948Z,96.94
2022-10-19T04:02:09.661Z,97.45
2022-10-19T04:03:29.951Z,97.77
2022-10-19T04:04:09.651Z,97.77
2022-10-19T04:05:09.889Z,98.28
2022-10-19T04:06:09.635Z,98.59
2022-10-19T04:07:09.872Z,98.90
2022-10-19T04:08:09.599Z,99.10
2022-10-19T04:09:09.850Z,99.21
2022-10-19T04:10:09.570Z,99.41
2022-10-19T04:11:09.803Z,99.41
2022-10-19T04:12:09.553Z,99.41
2022-10-19T04:13:29.817Z,99.41
2022-10-19T04:15:09.783Z,99.51
2022-10-19T04:16:09.531Z,99.62
2022-10-19T04:17:09.765Z,99.72
2022-10-19T04:18:09.517Z,99.72
2022-10-19T04:19:09.794Z,99.72
2022-10-19T04:20:09.551Z,99.82
2022-10-19T04:21:09.795Z,99.72
2022-10-19T04:22:09.530Z,99.82
2022-10-19T04:23:29.786Z,99.93
2022-10-19T04:24:09.527Z,99.93
2022-10-19T04:25:09.785Z,99.99
2022-10-19T04:26:09.515Z,99.99
2022-10-19T04:27:09.746Z,99.99
2022-10-19T04:28:09.499Z,99.99
2022-10-19T04:29:09.779Z,99.99
2022-10-19T04:30:08.758Z,99.99
2022-10-19T04:31:09.498Z,99.99
2022-10-19T04:32:09.235Z,99.99
2022-10-19T04:33:30.976Z,99.99
2022-10-19T04:34:10.726Z,99.99
2022-10-19T04:35:09.530Z,99.99
2022-10-19T04:36:08.728Z,99.99
2022-10-19T04:37:08.678Z,99.99
2022-10-19T04:38:08.665Z,99.99
2022-10-19T04:39:08.667Z,99.99
2022-10-19T04:40:12.740Z,99.99
2022-10-19T04:41:09.637Z,99.99
2022-10-19T04:42:08.682Z,99.99
2022-10-19T04:43:30.157Z,99.99
2022-10-19T04:44:08.691Z,99.99
2022-10-19T04:45:08.610Z,99.99
2022-10-19T04:46:08.590Z,99.99
2022-10-19T04:47:08.622Z,99.99
2022-10-19T04:48:08.566Z,99.99
2022-10-19T04:49:08.550Z,99.99
2022-10-19T04:50:08.541Z,99.99
2022-10-19T04:51:08.542Z,99.99
2022-10-19T04:52:08.510Z,99.99
2022-10-19T04:53:29.127Z,99.99
2022-10-19T04:54:09.450Z,99.99
2022-10-19T04:55:08.492Z,99.99
2022-10-19T04:56:08.479Z,99.99
2022-10-19T04:57:08.462Z,99.99
2022-10-19T04:58:08.451Z,99.99
2022-10-19T04:59:08.500Z,99.99
2022-10-19T05:00:08.459Z,99.99
2022-10-19T05:01:08.473Z,99.99
2022-10-19T05:02:09.163Z,99.99
2022-10-19T05:03:30.919Z,99.99
2022-10-19T05:04:09.211Z,99.99
2022-10-19T05:05:08.948Z,99.99
2022-10-19T05:06:09.221Z,99.99
2022-10-19T05:07:08.954Z,99.99
2022-10-19T05:08:09.212Z,99.99
2022-10-19T05:09:08.950Z,99.99
2022-10-19T05:10:09.195Z,99.99
2022-10-19T05:11:08.954Z,99.99
2022-10-19T05:12:09.194Z,99.99
2022-10-19T05:13:29.075Z,99.99
2022-10-19T05:14:10.189Z,99.99
2022-10-19T05:15:10.464Z,99.99
2022-10-19T05:16:09.246Z,99.99
2022-10-19T05:17:08.997Z,99.99
2022-10-19T05:18:09.236Z,99.99
2022-10-19T05:19:08.979Z,99.99
2022-10-19T05:20:09.227Z,99.99
2022-10-19T05:21:08.986Z,99.99
2022-10-19T05:22:08.705Z,99.99
2022-10-19T05:23:29.628Z,99.99
2022-10-19T05:24:08.746Z,99.99
2022-10-19T05:25:08.987Z,99.99
2022-10-19T05:26:08.725Z,99.99
2022-10-19T05:27:08.994Z,99.99
2022-10-19T05:28:08.743Z,99.99
2022-10-19T05:29:09.037Z,99.99
2022-10-19T05:30:08.732Z,99.99
2022-10-19T05:31:08.971Z,99.99
2022-10-19T05:32:08.710Z,99.99
2022-10-19T05:33:30.438Z,99.97
2022-10-19T05:34:09.646Z,99.97
2022-10-19T05:35:09.930Z,99.87
2022-10-19T05:36:08.739Z,99.87
2022-10-19T05:37:08.977Z,99.97
2022-10-19T05:38:08.740Z,99.87
2022-10-19T05:39:08.969Z,99.99
2022-10-19T05:40:08.739Z,99.99
2022-10-19T05:41:08.967Z,99.99
2022-10-19T05:42:08.700Z,99.99
2022-10-19T05:43:29.136Z,99.99
2022-10-19T05:44:08.744Z,99.99
2022-10-19T05:45:08.501Z,99.99
2022-10-19T05:46:08.730Z,99.99
2022-10-19T05:47:08.483Z,99.99
2022-10-19T05:48:08.723Z,99.99
2022-10-19T05:49:08.466Z,99.99
2022-10-19T05:50:08.712Z,99.99
2022-10-19T05:51:08.467Z,99.99
2022-10-19T05:52:07.895Z,99.99
2022-10-19T05:53:28.541Z,99.99
2022-10-19T05:54:07.976Z,99.99
2022-10-19T05:55:08.826Z,99.99
2022-10-19T05:56:07.902Z,99.99
2022-10-19T05:57:08.632Z,99.99
2022-10-19T05:58:07.843Z,99.99
2022-10-19T05:59:07.855Z,99.99
2022-10-19T06:00:08.573Z,99.99
2022-10-19T06:01:08.326Z,99.99
2022-10-19T06:02:08.595Z,99.99
2022-10-19T06:03:30.300Z,99.99
2022-10-19T06:04:08.661Z,99.99
2022-10-19T06:05:08.364Z,99.99
2022-10-19T06:06:08.611Z,99.99
2022-10-19T06:07:08.367Z,99.99
2022-10-19T06:08:08.611Z,99.99
2022-10-19T06:09:08.363Z,99.99
2022-10-19T06:10:08.608Z,99.99
2022-10-19T06:11:08.369Z,99.99
2022-10-19T06:12:08.617Z,99.99
2022-10-19T06:13:29.178Z,99.99
2022-10-19T06:14:08.627Z,99.99
2022-10-19T06:15:09.362Z,99.99
2022-10-19T06:16:09.091Z,99.99
2022-10-19T06:17:08.409Z,99.99
2022-10-19T06:18:08.168Z,99.99
2022-10-19T06:19:08.417Z,99.99
2022-10-19T06:20:08.146Z,99.99
2022-10-19T06:21:08.394Z,99.99
2022-10-19T06:22:08.136Z,99.99
2022-10-19T06:23:29.905Z,99.99
2022-10-19T06:24:08.154Z,99.99
2022-10-19T06:25:08.408Z,99.99
2022-10-19T06:26:08.161Z,99.99
2022-10-19T06:27:08.408Z,99.99
2022-10-19T06:28:08.146Z,99.99
2022-10-19T06:29:08.404Z,99.99
2022-10-19T06:30:08.130Z,99.99
2022-10-19T06:31:09.240Z,99.99
2022-10-19T06:32:08.126Z,99.99
2022-10-19T06:33:29.853Z,99.93
2022-10-19T06:34:08.198Z,99.93
2022-10-19T06:35:08.381Z,99.82
2022-10-19T06:36:08.149Z,99.82
2022-10-19T06:37:08.419Z,99.82
2022-10-19T06:38:08.139Z,99.93
2022-10-19T06:39:08.382Z,99.93
2022-10-19T06:40:08.175Z,99.82
2022-10-19T06:41:08.374Z,99.72
2022-10-19T06:42:08.118Z,99.62
2022-10-19T06:43:28.692Z,99.62
2022-10-19T06:44:08.154Z,99.57
2022-10-19T06:45:07.893Z,99.57
2022-10-19T06:46:08.130Z,99.57
2022-10-19T06:47:07.890Z,99.47
2022-10-19T06:48:08.134Z,99.47
2022-10-19T06:49:07.891Z,99.47
2022-10-19T06:50:08.139Z,99.47
2022-10-19T06:51:07.891Z,99.47
2022-10-19T06:52:08.139Z,99.37
2022-10-19T06:53:28.626Z,99.21
2022-10-19T06:54:08.199Z,99.21
2022-10-19T06:55:07.943Z,99.11
2022-10-19T06:56:09.145Z,98.86
2022-10-19T06:57:08.910Z,98.66
2022-10-19T06:58:08.223Z,98.35
2022-10-19T06:59:07.986Z,98.14
2022-10-19T07:00:08.226Z,97.94
2022-10-19T07:01:08.042Z,97.83
2022-10-19T07:02:07.745Z,97.83
2022-10-19T07:03:29.469Z,97.83
2022-10-19T07:04:07.748Z,97.83
2022-10-19T07:05:07.994Z,97.89
2022-10-19T07:06:07.735Z,97.54
2022-10-19T07:07:07.986Z,96.73
2022-10-19T07:08:07.772Z,95.00
2022-10-19T07:09:07.990Z,93.52
2022-10-19T07:10:07.736Z,92.55
2022-10-19T07:11:07.977Z,92.34
2022-10-19T07:12:07.714Z,91.99
2022-10-19T07:13:29.495Z,91.58
2022-10-19T07:14:07.800Z,91.48
2022-10-19T07:15:08.043Z,91.38
2022-10-19T07:16:07.791Z,90.78
2022-10-19T07:17:08.698Z,89.67
2022-10-19T07:18:07.807Z,88.10
2022-10-19T07:19:07.569Z,87.24
2022-10-19T07:20:07.808Z,85.92
2022-10-19T07:21:07.569Z,85.37
2022-10-19T07:22:07.806Z,84.82
2022-10-19T07:23:27.717Z,83.04
2022-10-19T07:24:07.859Z,82.40
2022-10-19T07:25:07.609Z,81.79
2022-10-19T07:26:07.849Z,82.68
2022-10-19T07:27:07.597Z,84.39
2022-10-19T07:28:07.854Z,85.55
2022-10-19T07:29:07.621Z,86.71
2022-10-19T07:30:07.801Z,87.63
2022-10-19T07:31:07.550Z,88.08
2022-10-19T07:32:07.799Z,88.59
2022-10-19T07:33:28.538Z,89.04
2022-10-19T07:34:07.823Z,89.25
2022-10-19T07:35:07.560Z,89.76
2022-10-19T07:36:07.875Z,90.21
2022-10-19T07:37:07.551Z,90.52
2022-10-19T07:38:09.218Z,90.92
2022-10-19T07:39:07.541Z,91.13
2022-10-19T07:40:07.774Z,90.88
2022-10-19T07:41:07.552Z,90.47
2022-10-19T07:42:07.264Z,90.33
2022-10-19T07:43:28.555Z,90.47
2022-10-19T07:44:08.244Z,90.58
2022-10-19T07:45:07.582Z,90.58
2022-10-19T07:46:07.331Z,90.82
2022-10-19T07:47:07.577Z,91.33
2022-10-19T07:48:07.314Z,91.50
2022-10-19T07:49:07.600Z,91.05
2022-10-19T07:50:07.355Z,90.59
2022-10-19T07:51:07.555Z,89.73
2022-10-19T07:52:07.289Z,88.53
2022-10-19T07:53:29.028Z,87.30
2022-10-19T07:54:07.309Z,87.20
2022-10-19T07:55:07.569Z,86.49
2022-10-19T07:56:07.287Z,86.59
2022-10-19T07:57:07.580Z,87.45
2022-10-19T07:58:08.753Z,88.20
2022-10-19T07:59:07.605Z,89.37
2022-10-19T08:00:07.307Z,89.78
2022-10-19T08:01:07.557Z,90.19
2022-10-19T08:02:07.342Z,90.84
2022-10-19T08:04:42.693Z,91.46
2022-10-19T08:05:11.526Z,91.96
2022-10-19T08:06:07.029Z,92.27
2022-10-19T08:07:07.266Z,92.47
2022-10-19T08:08:07.016Z,92.88
2022-10-19T08:09:07.308Z,92.99
2022-10-19T08:10:06.990Z,93.09
2022-10-19T08:11:07.239Z,92.94
2022-10-19T08:12:06.971Z,92.84
2022-10-19T08:13:28.249Z,92.08
2022-10-19T08:14:07.013Z,91.88
2022-10-19T08:15:07.262Z,91.33
2022-10-19T08:16:06.997Z,90.08
2022-10-19T08:17:07.250Z,87.16
2022-10-19T08:18:07.293Z,83.62
2022-10-19T08:19:08.717Z,81.79
2022-10-19T08:20:07.012Z,80.77
2022-10-19T08:21:07.255Z,78.49
2022-10-19T08:22:06.983Z,75.10
2022-10-19T08:23:28.215Z,70.06
2022-10-19T08:24:06.995Z,69.18
2022-10-19T08:25:07.237Z,66.56
2022-10-19T08:26:06.983Z,65.30
2022-10-19T08:27:07.230Z,63.42
2022-10-19T08:28:06.967Z,62.89
2022-10-19T08:29:07.240Z,62.96
2022-10-19T08:30:06.964Z,60.86
2022-10-19T08:31:07.206Z,59.28
2022-10-19T08:32:06.964Z,57.42
2022-10-19T08:33:28.218Z,57.12
2022-10-19T08:34:06.971Z,55.69
2022-10-19T08:35:10.009Z,55.27
2022-10-19T08:36:06.967Z,54.39
2022-10-19T08:38:15.754Z,55.49
2022-10-19T08:38:21.507Z,54.94
2022-10-19T08:39:22.811Z,53.67
2022-10-19T08:40:22.100Z,54.37
2022-10-19T08:41:22.143Z,54.47
2022-10-19T08:44:05.065Z,54.02
2022-10-19T08:44:33.950Z,52.74
2022-10-19T08:48:16.769Z,53.04
2022-10-19T08:48:23.024Z,52.19
2022-10-19T08:49:22.765Z,52.17
2022-10-19T08:50:23.692Z,52.39
2022-10-19T09:17:52.015Z,51.50
2022-10-19T09:18:03.506Z,47.54
2022-10-19T09:25:24.788Z,47.47
2022-10-19T09:25:31.054Z,49.45
2022-10-19T09:26:31.832Z,49.33
2022-10-19T09:27:50.183Z,49.23
2022-10-19T09:30:58.884Z,49.43
2022-10-19T09:31:03.674Z,47.39
2022-10-19T09:32:04.424Z,48.21
2022-10-19T09:33:04.171Z,48.61
2022-10-19T09:34:04.411Z,49.25
2022-10-19T09:35:04.172Z,48.97
2022-10-19T09:36:04.427Z,50.00
2022-10-19T09:37:04.250Z,50.49
2022-10-19T09:38:04.428Z,50.70
2022-10-19T09:39:28.559Z,50.17
2022-10-19T09:40:05.915Z,50.15
2022-10-19T09:41:22.794Z,49.43
2022-10-19T09:42:39.079Z,48.53
2022-10-19T09:43:04.305Z,48.91
2022-10-19T09:50:56.553Z,48.79
2022-10-19T09:51:01.323Z,48.08
2022-10-19T11:25:16.333Z,47.66
2022-10-19T11:26:01.389Z,43.24
2022-10-19T11:26:25.757Z,44.52
2022-10-19T11:27:46.557Z,45.36
2022-10-19T11:28:23.303Z,46.65
2022-10-19T11:29:22.564Z,46.08
2022-10-19T11:30:22.362Z,46.17
2022-10-19T11:31:22.695Z,45.87
2022-10-19T11:32:22.095Z,46.08
2022-10-19T11:33:30.287Z,45.31
2022-10-19T11:34:25.135Z,44.22
2022-10-19T11:35:33.954Z,44.40
2022-10-19T11:42:03.311Z,43.18
2022-10-19T11:44:27.861Z,41.30
2022-10-19T11:46:01.661Z,41.91
2022-10-19T11:46:19.985Z,43.92
2022-10-19T11:47:07.267Z,45.28
2022-10-19T11:48:07.013Z,46.31
2022-10-19T11:49:34.242Z,47.33
2022-10-19T11:51:20.532Z,47.16
2022-10-19T11:52:08.992Z,48.60
2022-10-19T11:53:07.247Z,49.77
2022-10-19T11:54:28.475Z,52.74
2022-10-19T11:55:07.268Z,52.59
2022-10-19T11:56:07.024Z,53.75
2022-10-19T11:57:10.702Z,54.68
2022-10-19T11:58:07.046Z,54.90
2022-10-19T11:59:07.353Z,54.75
2022-10-19T12:00:14.634Z,55.99
2022-10-19T12:01:07.785Z,56.09
2022-10-19T12:02:07.111Z,56.84
2022-10-19T12:03:06.798Z,57.78
2022-10-19T12:04:27.916Z,58.21
2022-10-19T12:05:06.820Z,59.31
2022-10-19T12:06:07.061Z,59.75
2022-10-19T12:07:06.838Z,60.45
2022-10-19T12:08:07.105Z,60.75
2022-10-19T12:09:06.871Z,60.55
2022-10-19T12:10:07.096Z,60.68
2022-10-19T12:11:06.847Z,61.18
2022-10-19T12:12:07.104Z,61.89
2022-10-19T12:13:06.861Z,61.89
2022-10-19T12:14:28.102Z,60.48
2022-10-19T12:15:07.827Z,60.68
2022-10-19T12:16:07.145Z,60.88
2022-10-19T12:17:06.944Z,61.29
2022-10-19T12:18:06.634Z,61.69
2022-10-19T12:19:06.888Z,61.18
2022-10-19T12:20:06.630Z,61.08
2022-10-19T12:21:06.877Z,61.69
2022-10-19T12:22:06.630Z,61.79
2022-10-19T12:23:06.875Z,62.19
2022-10-19T12:24:27.709Z,61.92
2022-10-19T12:25:07.897Z,62.63
2022-10-19T12:26:06.746Z,63.43
2022-10-19T12:27:07.009Z,62.93
2022-10-19T12:28:06.706Z,63.43
2022-10-19T12:29:06.949Z,63.03
2022-10-19T12:30:06.694Z,62.93
2022-10-19T12:31:06.939Z,62.52
2022-10-19T12:32:06.682Z,62.32
2022-10-19T12:33:06.921Z,62.02
2022-10-19T12:34:27.661Z,62.49
2022-10-19T12:35:06.438Z,61.61
2022-10-19T12:36:06.721Z,62.12
2022-10-19T12:37:06.456Z,62.02
2022-10-19T12:38:06.712Z,62.32
2022-10-19T12:39:06.461Z,62.02
2022-10-19T12:40:06.735Z,62.63
2022-10-19T12:41:06.470Z,63.33
2022-10-19T12:42:06.702Z,63.43
2022-10-19T12:43:06.441Z,63.43
2022-10-19T12:44:27.446Z,64.14
2022-10-19T12:45:06.727Z,63.13
2022-10-19T12:46:06.806Z,63.06
2022-10-19T12:47:06.478Z,62.63
2022-10-19T12:48:06.735Z,61.75
2022-10-19T12:49:06.482Z,62.55
2022-10-19T12:50:06.758Z,61.65
2022-10-19T12:51:06.490Z,60.84
2022-10-19T12:52:06.740Z,61.95
2022-10-19T12:53:06.495Z,61.65
2022-10-19T12:54:28.259Z,61.27
2022-10-19T12:55:06.547Z,61.98
2022-10-19T12:56:06.328Z,61.98
2022-10-19T12:57:06.569Z,61.57
2022-10-19T12:58:06.309Z,62.08
2022-10-19T12:59:06.560Z,61.77
2022-10-19T13:00:06.296Z,62.65
2022-10-19T13:01:06.582Z,62.76
2022-10-19T13:02:06.299Z,63.56
2022-10-19T13:03:06.522Z,63.56
2022-10-19T13:04:26.492Z,63.67
2022-10-19T13:05:07.609Z,63.67
2022-10-19T13:06:07.401Z,64.07
2022-10-19T13:07:06.180Z,64.58
2022-10-19T13:08:09.289Z,65.48
2022-10-19T13:09:07.190Z,63.36
2022-10-19T13:10:06.414Z,61.24
2022-10-19T13:11:06.170Z,62.25
2022-10-19T13:12:06.420Z,62.76
2022-10-19T13:13:06.146Z,61.35
2022-10-19T13:14:26.943Z,61.85
2022-10-19T13:15:06.186Z,61.85
2022-10-19T13:16:06.435Z,62.15
2022-10-19T13:17:06.200Z,62.18
2022-10-19T13:18:06.411Z,63.49
2022-10-19T13:19:06.155Z,62.08
2022-10-19T13:20:06.403Z,62.01
2022-10-19T13:21:08.400Z,62.71
2022-10-19T13:22:06.390Z,63.02
2022-10-19T13:23:06.124Z,62.82
2022-10-19T13:24:26.563Z,63.52
2022-10-19T13:25:06.368Z,63.62
2022-10-19T13:26:07.379Z,63.49
2022-10-19T13:27:07.637Z,63.39
2022-10-19T13:28:05.945Z,63.29
2022-10-19T13:29:06.186Z,63.39
2022-10-19T13:30:05.920Z,62.88
2022-10-19T13:31:10.493Z,62.88
2022-10-19T13:32:06.345Z,62.99
2022-10-19T13:33:06.104Z,63.39
2022-10-19T13:34:27.342Z,63.90
2022-10-19T13:35:06.118Z,64.10
2022-10-19T13:36:05.870Z,62.68
2022-10-19T13:37:06.139Z,62.88
2022-10-19T13:38:05.907Z,63.09
2022-10-19T13:39:06.202Z,63.19
2022-10-19T13:40:05.891Z,63.70
2022-10-19T13:41:06.163Z,62.68
2022-10-19T13:42:05.891Z,63.59
2022-10-19T13:43:06.149Z,64.40
2022-10-19T13:44:26.903Z,65.08
2022-10-19T13:45:06.203Z,62.88
2022-10-19T13:46:07.394Z,62.48
2022-10-19T13:47:06.341Z,62.38
2022-10-19T13:48:05.973Z,62.99
2022-10-19T13:49:05.732Z,63.49
2022-10-19T13:50:05.997Z,62.99
2022-10-19T13:51:05.703Z,62.88
2022-10-19T13:52:06.894Z,62.48
2022-10-19T13:53:05.754Z,62.18
2022-10-19T13:54:29.463Z,62.92
2022-10-19T13:55:05.788Z,63.42
2022-10-19T13:56:06.059Z,63.62
2022-10-19T13:57:05.812Z,64.23
2022-10-19T13:58:06.102Z,63.52
2022-10-19T13:59:05.851Z,63.93
2022-10-19T14:00:05.711Z,63.93
2022-10-19T14:01:05.816Z,65.04
2022-10-19T14:02:05.609Z,64.53
2022-10-19T14:03:08.043Z,64.61
2022-10-19T14:04:27.110Z,63.49
2022-10-19T14:05:05.871Z,63.62
2022-10-19T14:06:06.577Z,63.42
2022-10-19T14:07:07.346Z,64.23
2022-10-19T14:08:07.087Z,63.42
2022-10-19T14:09:06.011Z,63.73
2022-10-19T14:10:05.808Z,64.84
2022-10-19T14:11:07.370Z,64.84
2022-10-19T14:12:05.681Z,64.81
2022-10-19T14:13:07.387Z,63.39
2022-10-19T14:14:25.853Z,64.10
2022-10-19T14:15:05.450Z,63.39
2022-10-19T14:16:05.714Z,63.70
2022-10-19T14:17:05.675Z,63.19
2022-10-19T14:18:06.155Z,63.79
2022-10-19T14:19:05.516Z,63.42
2022-10-19T14:20:05.797Z,64.10
2022-10-19T14:21:05.457Z,63.59
2022-10-19T14:22:05.738Z,64.81
2022-10-19T14:23:05.502Z,64.81
2022-10-19T14:24:26.441Z,65.71
2022-10-19T14:25:05.537Z,64.70
2022-10-19T14:26:05.889Z,63.90
2022-10-19T14:27:05.556Z,64.40
2022-10-19T14:28:05.815Z,63.79
2022-10-19T14:29:05.645Z,64.20
2022-10-19T14:30:05.412Z,64.64
2022-10-19T14:31:05.647Z,64.03
2022-10-19T14:32:05.318Z,64.43
2022-10-19T14:33:05.572Z,63.73
2022-10-19T14:34:26.011Z,64.73
2022-10-19T14:35:05.760Z,64.53
2022-10-19T14:36:05.390Z,64.73
2022-10-19T14:37:05.680Z,65.07
2022-10-19T14:38:05.397Z,65.07
2022-10-19T14:39:05.689Z,65.54
2022-10-19T14:40:05.994Z,65.54
2022-10-19T14:41:06.672Z,65.84
2022-10-19T14:42:05.593Z,66.25
2022-10-19T14:43:05.456Z,65.54
2022-10-19T14:44:25.581Z,65.27
2022-10-19T14:45:05.383Z,65.57
2022-10-19T14:46:05.993Z,65.37
2022-10-19T14:47:05.412Z,65.57
2022-10-19T14:48:06.109Z,65.47
2022-10-19T14:49:06.840Z,65.98
2022-10-19T14:50:05.861Z,66.18
2022-10-19T14:51:06.443Z,66.38
2022-10-19T14:52:06.006Z,66.58
2022-10-19T14:53:06.466Z,66.69
2022-10-19T14:54:26.243Z,67.29
2022-10-19T14:55:05.157Z,67.09
2022-10-19T14:56:06.788Z,66.89
2022-10-19T14:57:06.561Z,67.19
2022-10-19T14:58:06.007Z,66.28
2022-10-19T14:59:05.243Z,66.69
2022-10-19T15:00:05.523Z,65.91
2022-10-19T15:01:06.699Z,66.11
2022-10-19T15:02:06.497Z,66.11
2022-10-19T15:03:06.769Z,66.41
2022-10-19T15:04:26.549Z,66.21
2022-10-19T15:05:06.824Z,66.44
2022-10-19T15:06:06.593Z,67.05
2022-10-19T15:07:06.355Z,67.25
2022-10-19T15:08:06.651Z,67.66
2022-10-19T15:09:12.078Z,68.16
2022-10-19T15:10:06.418Z,68.57
2022-10-19T15:11:06.547Z,67.66
2022-10-19T15:12:05.574Z,67.55
2022-10-19T15:13:06.150Z,67.66
2022-10-19T15:14:24.949Z,68.57
2022-10-19T15:15:06.643Z,68.16
2022-10-19T15:16:05.511Z,68.16
2022-10-19T15:17:06.176Z,68.97